sensor_id;sensor_type;location;lat;lon;timestamp;P1;durP1;ratioP1;P2;durP2;ratioP2
29906;SDS011;16776;50.958;10.994;2023-01-24T00:02:25;16.83;;;7.95;;
29906;SDS011;16776;50.958;10.994;2023-01-24T00:04:51;14.93;;;8.00;;
29906;SDS011;16776;50.958;10.994;2023-01-24T00:07:18;13.18;;;7.35;;
29906;SDS011;16776;50.958;10.994;2023-01-24T00:09:46;14.30;;;8.02;;
29906;SDS011;16776;50.958;10.994;2023-01-24T00:12:12;12.63;;;7.03;;
29906;SDS011;16776;50.958;10.994;2023-01-24T00:14:39;13.73;;;7.03;;
29906;SDS011;16776;50.958;10.994;2023-01-24T00:17:06;17.15;;;8.82;;
29906;SDS011;16776;50.958;10.994;2023-01-24T00:19:33;14.05;;;7.90;;
29906;SDS011;16776;50.958;10.994;2023-01-24T00:22:02;12.13;;;6.55;;
29906;SDS011;16776;50.958;10.994;2023-01-24T00:24:29;15.38;;;8.00;;
29906;SDS011;16776;50.958;10.994;2023-01-24T00:26:59;15.00;;;7.00;;
29906;SDS011;16776;50.958;10.994;2023-01-24T00:29:28;16.48;;;7.22;;
29906;SDS011;16776;50.958;10.994;2023-01-24T00:31:55;12.50;;;6.53;;
29906;SDS011;16776;50.958;10.994;2023-01-24T00:34:21;13.55;;;7.75;;
29906;SDS011;16776;50.958;10.994;2023-01-24T00:36:48;15.23;;;7.00;;
29906;SDS011;16776;50.958;10.994;2023-01-24T00:39:14;13.48;;;6.68;;
29906;SDS011;16776;50.958;10.994;2023-01-24T00:41:41;14.38;;;7.07;;
29906;SDS011;16776;50.958;10.994;2023-01-24T00:44:09;14.73;;;7.80;;
29906;SDS011;16776;50.958;10.994;2023-01-24T00:46:36;15.23;;;7.53;;
29906;SDS011;16776;50.958;10.994;2023-01-24T00:49:04;12.48;;;7.13;;
29906;SDS011;16776;50.958;10.994;2023-01-24T00:51:31;12.63;;;6.75;;
29906;SDS011;16776;50.958;10.994;2023-01-24T00:53:58;13.80;;;7.03;;
29906;SDS011;16776;50.958;10.994;2023-01-24T00:56:24;14.73;;;7.35;;
29906;SDS011;16776;50.958;10.994;2023-01-24T00:58:51;14.50;;;7.43;;
29906;SDS011;16776;50.958;10.994;2023-01-24T01:01:19;15.45;;;6.90;;
29906;SDS011;16776;50.958;10.994;2023-01-24T01:03:46;12.20;;;6.43;;
29906;SDS011;16776;50.958;10.994;2023-01-24T01:06:13;12.00;;;5.93;;
29906;SDS011;16776;50.958;10.994;2023-01-24T01:08:42;12.13;;;6.25;;
29906;SDS011;16776;50.958;10.994;2023-01-24T01:11:09;15.75;;;8.30;;
29906;SDS011;16776;50.958;10.994;2023-01-24T01:13:35;14.13;;;7.43;;
29906;SDS011;16776;50.958;10.994;2023-01-24T01:16:02;13.63;;;6.80;;
29906;SDS011;16776;50.958;10.994;2023-01-24T01:18:32;14.30;;;6.63;;
29906;SDS011;16776;50.958;10.994;2023-01-24T01:21:00;15.65;;;7.88;;
29906;SDS011;16776;50.958;10.994;2023-01-24T01:23:28;14.50;;;7.38;;
29906;SDS011;16776;50.958;10.994;2023-01-24T01:25:58;17.88;;;9.32;;
29906;SDS011;16776;50.958;10.994;2023-01-24T01:28:25;12.00;;;6.50;;
29906;SDS011;16776;50.958;10.994;2023-01-24T01:30:52;18.15;;;8.30;;
29906;SDS011;16776;50.958;10.994;2023-01-24T01:33:19;15.10;;;8.48;;
29906;SDS011;16776;50.958;10.994;2023-01-24T01:35:47;14.85;;;8.07;;
29906;SDS011;16776;50.958;10.994;2023-01-24T01:38:13;14.95;;;6.95;;
29906;SDS011;16776;50.958;10.994;2023-01-24T01:40:40;12.60;;;7.00;;
29906;SDS011;16776;50.958;10.994;2023-01-24T01:43:08;13.40;;;6.78;;
29906;SDS011;16776;50.958;10.994;2023-01-24T01:45:39;11.75;;;7.07;;
29906;SDS011;16776;50.958;10.994;2023-01-24T01:48:17;15.30;;;7.65;;
29906;SDS011;16776;50.958;10.994;2023-01-24T01:50:50;13.52;;;6.95;;
29906;SDS011;16776;50.958;10.994;2023-01-24T01:53:23;15.73;;;7.32;;
29906;SDS011;16776;50.958;10.994;2023-01-24T01:55:54;13.35;;;7.45;;
29906;SDS011;16776;50.958;10.994;2023-01-24T01:58:25;12.95;;;6.78;;
29906;SDS011;16776;50.958;10.994;2023-01-24T02:00:52;10.18;;;5.47;;
29906;SDS011;16776;50.958;10.994;2023-01-24T02:03:24;10.95;;;5.82;;
29906;SDS011;16776;50.958;10.994;2023-01-24T02:06:13;14.55;;;7.20;;
29906;SDS011;16776;50.958;10.994;2023-01-24T02:08:48;11.88;;;6.43;;
29906;SDS011;16776;50.958;10.994;2023-01-24T02:11:16;12.05;;;6.40;;
29906;SDS011;16776;50.958;10.994;2023-01-24T02:14:01;12.38;;;5.90;;
29906;SDS011;16776;50.958;10.994;2023-01-24T02:16:45;9.15;;;5.53;;
29906;SDS011;16776;50.958;10.994;2023-01-24T02:19:15;10.05;;;5.45;;
29906;SDS011;16776;50.958;10.994;2023-01-24T02:21:49;10.30;;;5.28;;
29906;SDS011;16776;50.958;10.994;2023-01-24T02:24:21;9.02;;;5.25;;
29906;SDS011;16776;50.958;10.994;2023-01-24T02:26:57;9.85;;;6.10;;
29906;SDS011;16776;50.958;10.994;2023-01-24T02:29:24;12.80;;;6.57;;
29906;SDS011;16776;50.958;10.994;2023-01-24T02:31:52;12.13;;;6.93;;
29906;SDS011;16776;50.958;10.994;2023-01-24T02:34:19;10.48;;;6.30;;
29906;SDS011;16776;50.958;10.994;2023-01-24T02:36:46;8.43;;;5.20;;
29906;SDS011;16776;50.958;10.994;2023-01-24T02:39:16;8.55;;;4.30;;
29906;SDS011;16776;50.958;10.994;2023-01-24T02:41:49;9.02;;;4.93;;
29906;SDS011;16776;50.958;10.994;2023-01-24T02:44:21;6.50;;;4.38;;
29906;SDS011;16776;50.958;10.994;2023-01-24T02:46:53;8.10;;;5.22;;
29906;SDS011;16776;50.958;10.994;2023-01-24T02:49:20;9.40;;;5.63;;
29906;SDS011;16776;50.958;10.994;2023-01-24T02:51:48;7.28;;;4.90;;
29906;SDS011;16776;50.958;10.994;2023-01-24T02:54:32;7.50;;;4.55;;
29906;SDS011;16776;50.958;10.994;2023-01-24T02:56:58;8.43;;;4.20;;
29906;SDS011;16776;50.958;10.994;2023-01-24T02:59:44;6.80;;;3.80;;
29906;SDS011;16776;50.958;10.994;2023-01-24T03:02:11;7.97;;;4.35;;
29906;SDS011;16776;50.958;10.994;2023-01-24T03:04:37;7.95;;;4.32;;
29906;SDS011;16776;50.958;10.994;2023-01-24T03:07:04;7.53;;;4.55;;
29906;SDS011;16776;50.958;10.994;2023-01-24T03:09:31;7.55;;;3.88;;
29906;SDS011;16776;50.958;10.994;2023-01-24T03:12:04;6.72;;;4.30;;
29906;SDS011;16776;50.958;10.994;2023-01-24T03:14:51;6.75;;;3.83;;
29906;SDS011;16776;50.958;10.994;2023-01-24T03:17:35;6.07;;;3.50;;
29906;SDS011;16776;50.958;10.994;2023-01-24T03:20:20;6.55;;;4.15;;
29906;SDS011;16776;50.958;10.994;2023-01-24T03:23:04;6.80;;;3.92;;
29906;SDS011;16776;50.958;10.994;2023-01-24T03:25:48;6.05;;;3.80;;
29906;SDS011;16776;50.958;10.994;2023-01-24T03:28:37;6.72;;;3.30;;
29906;SDS011;16776;50.958;10.994;2023-01-24T03:31:22;5.97;;;3.65;;
29906;SDS011;16776;50.958;10.994;2023-01-24T03:34:06;4.40;;;2.85;;
29906;SDS011;16776;50.958;10.994;2023-01-24T03:36:50;4.75;;;3.00;;
29906;SDS011;16776;50.958;10.994;2023-01-24T03:39:17;4.45;;;3.08;;
29906;SDS011;16776;50.958;10.994;2023-01-24T03:42:01;5.47;;;3.60;;
29906;SDS011;16776;50.958;10.994;2023-01-24T03:44:27;6.05;;;3.75;;
29906;SDS011;16776;50.958;10.994;2023-01-24T03:46:55;6.18;;;3.65;;
29906;SDS011;16776;50.958;10.994;2023-01-24T03:49:22;6.18;;;3.60;;
29906;SDS011;16776;50.958;10.994;2023-01-24T03:52:06;6.40;;;3.97;;
29906;SDS011;16776;50.958;10.994;2023-01-24T03:54:52;6.97;;;3.85;;
29906;SDS011;16776;50.958;10.994;2023-01-24T03:57:19;7.32;;;4.30;;
29906;SDS011;16776;50.958;10.994;2023-01-24T03:59:45;6.88;;;4.38;;
29906;SDS011;16776;50.958;10.994;2023-01-24T04:02:13;7.53;;;5.03;;
29906;SDS011;16776;50.958;10.994;2023-01-24T04:04:40;8.77;;;4.50;;
29906;SDS011;16776;50.958;10.994;2023-01-24T04:07:24;8.50;;;4.78;;
29906;SDS011;16776;50.958;10.994;2023-01-24T04:09:51;9.20;;;4.93;;
29906;SDS011;16776;50.958;10.994;2023-01-24T04:12:17;6.47;;;3.90;;
29906;SDS011;16776;50.958;10.994;2023-01-24T04:14:44;6.85;;;3.92;;
29906;SDS011;16776;50.958;10.994;2023-01-24T04:17:10;6.47;;;3.70;;
29906;SDS011;16776;50.958;10.994;2023-01-24T04:19:38;5.28;;;3.38;;
29906;SDS011;16776;50.958;10.994;2023-01-24T04:22:05;5.65;;;3.47;;
29906;SDS011;16776;50.958;10.994;2023-01-24T04:24:31;4.55;;;2.85;;
29906;SDS011;16776;50.958;10.994;2023-01-24T04:26:59;5.95;;;3.38;;
29906;SDS011;16776;50.958;10.994;2023-01-24T04:29:26;5.05;;;3.45;;
29906;SDS011;16776;50.958;10.994;2023-01-24T04:31:52;4.75;;;3.28;;
29906;SDS011;16776;50.958;10.994;2023-01-24T04:34:19;4.25;;;3.28;;
29906;SDS011;16776;50.958;10.994;2023-01-24T04:36:47;5.47;;;3.00;;
29906;SDS011;16776;50.958;10.994;2023-01-24T04:39:13;6.22;;;3.58;;
29906;SDS011;16776;50.958;10.994;2023-01-24T04:41:40;5.25;;;3.20;;
29906;SDS011;16776;50.958;10.994;2023-01-24T04:44:07;4.97;;;3.25;;
29906;SDS011;16776;50.958;10.994;2023-01-24T04:46:33;3.88;;;2.78;;
29906;SDS011;16776;50.958;10.994;2023-01-24T04:49:02;4.22;;;2.65;;
29906;SDS011;16776;50.958;10.994;2023-01-24T04:51:30;4.43;;;2.55;;
29906;SDS011;16776;50.958;10.994;2023-01-24T04:53:58;4.32;;;2.75;;
29906;SDS011;16776;50.958;10.994;2023-01-24T04:56:25;4.78;;;3.05;;
29906;SDS011;16776;50.958;10.994;2023-01-24T04:58:51;4.90;;;2.80;;
29906;SDS011;16776;50.958;10.994;2023-01-24T05:01:18;3.50;;;2.60;;
29906;SDS011;16776;50.958;10.994;2023-01-24T05:03:44;4.93;;;2.92;;
29906;SDS011;16776;50.958;10.994;2023-01-24T05:06:11;6.82;;;3.40;;
29906;SDS011;16776;50.958;10.994;2023-01-24T05:08:38;4.60;;;3.05;;
29906;SDS011;16776;50.958;10.994;2023-01-24T05:11:05;4.68;;;2.60;;
29906;SDS011;16776;50.958;10.994;2023-01-24T05:13:32;4.72;;;2.80;;
29906;SDS011;16776;50.958;10.994;2023-01-24T05:15:58;6.78;;;3.70;;
29906;SDS011;16776;50.958;10.994;2023-01-24T05:18:25;5.43;;;3.22;;
29906;SDS011;16776;50.958;10.994;2023-01-24T05:20:52;5.50;;;3.25;;
29906;SDS011;16776;50.958;10.994;2023-01-24T05:23:21;5.05;;;3.53;;
29906;SDS011;16776;50.958;10.994;2023-01-24T05:25:48;7.80;;;3.53;;
29906;SDS011;16776;50.958;10.994;2023-01-24T05:28:16;4.60;;;3.15;;
29906;SDS011;16776;50.958;10.994;2023-01-24T05:30:42;6.47;;;3.47;;
29906;SDS011;16776;50.958;10.994;2023-01-24T05:33:09;5.28;;;3.38;;
29906;SDS011;16776;50.958;10.994;2023-01-24T05:35:35;6.55;;;3.38;;
29906;SDS011;16776;50.958;10.994;2023-01-24T05:38:03;4.78;;;3.30;;
29906;SDS011;16776;50.958;10.994;2023-01-24T05:40:29;6.10;;;3.30;;
29906;SDS011;16776;50.958;10.994;2023-01-24T05:42:56;4.78;;;3.35;;
29906;SDS011;16776;50.958;10.994;2023-01-24T05:45:24;3.90;;;2.55;;
29906;SDS011;16776;50.958;10.994;2023-01-24T05:47:50;4.70;;;3.05;;
29906;SDS011;16776;50.958;10.994;2023-01-24T05:50:17;5.57;;;3.20;;
29906;SDS011;16776;50.958;10.994;2023-01-24T05:52:44;5.68;;;4.00;;
29906;SDS011;16776;50.958;10.994;2023-01-24T05:55:10;5.60;;;3.50;;
29906;SDS011;16776;50.958;10.994;2023-01-24T05:57:37;5.50;;;3.75;;
29906;SDS011;16776;50.958;10.994;2023-01-24T06:00:04;5.25;;;3.00;;
29906;SDS011;16776;50.958;10.994;2023-01-24T06:02:33;5.80;;;3.28;;
29906;SDS011;16776;50.958;10.994;2023-01-24T06:04:59;4.97;;;3.03;;
29906;SDS011;16776;50.958;10.994;2023-01-24T06:07:26;5.15;;;3.03;;
29906;SDS011;16776;50.958;10.994;2023-01-24T06:09:52;8.15;;;4.43;;
29906;SDS011;16776;50.958;10.994;2023-01-24T06:12:19;6.35;;;3.67;;
29906;SDS011;16776;50.958;10.994;2023-01-24T06:14:45;6.68;;;3.72;;
29906;SDS011;16776;50.958;10.994;2023-01-24T06:17:15;6.10;;;3.15;;
29906;SDS011;16776;50.958;10.994;2023-01-24T06:19:43;7.80;;;4.15;;
29906;SDS011;16776;50.958;10.994;2023-01-24T06:22:13;5.18;;;3.08;;
29906;SDS011;16776;50.958;10.994;2023-01-24T06:24:48;5.07;;;3.33;;
29906;SDS011;16776;50.958;10.994;2023-01-24T06:27:15;6.13;;;3.90;;
29906;SDS011;16776;50.958;10.994;2023-01-24T06:29:42;5.55;;;3.10;;
29906;SDS011;16776;50.958;10.994;2023-01-24T06:32:15;5.07;;;3.25;;
29906;SDS011;16776;50.958;10.994;2023-01-24T06:35:01;5.20;;;3.38;;
29906;SDS011;16776;50.958;10.994;2023-01-24T06:37:35;6.75;;;3.92;;
29906;SDS011;16776;50.958;10.994;2023-01-24T06:40:07;4.85;;;2.90;;
29906;SDS011;16776;50.958;10.994;2023-01-24T06:42:36;4.90;;;3.22;;
29906;SDS011;16776;50.958;10.994;2023-01-24T06:45:04;5.65;;;3.22;;
29906;SDS011;16776;50.958;10.994;2023-01-24T06:47:32;4.90;;;3.38;;
29906;SDS011;16776;50.958;10.994;2023-01-24T06:49:58;5.80;;;3.58;;
29906;SDS011;16776;50.958;10.994;2023-01-24T06:52:32;4.85;;;3.10;;
29906;SDS011;16776;50.958;10.994;2023-01-24T06:54:59;5.30;;;3.08;;
29906;SDS011;16776;50.958;10.994;2023-01-24T06:57:26;4.78;;;3.22;;
29906;SDS011;16776;50.958;10.994;2023-01-24T06:59:52;4.88;;;3.17;;
29906;SDS011;16776;50.958;10.994;2023-01-24T07:02:19;6.15;;;3.03;;
29906;SDS011;16776;50.958;10.994;2023-01-24T07:04:45;6.30;;;3.28;;
29906;SDS011;16776;50.958;10.994;2023-01-24T07:07:14;5.13;;;3.55;;
29906;SDS011;16776;50.958;10.994;2023-01-24T07:09:42;4.55;;;3.03;;
29906;SDS011;16776;50.958;10.994;2023-01-24T07:12:09;6.07;;;3.88;;
29906;SDS011;16776;50.958;10.994;2023-01-24T07:14:35;5.22;;;3.15;;
29906;SDS011;16776;50.958;10.994;2023-01-24T07:17:02;4.15;;;3.47;;
29906;SDS011;16776;50.958;10.994;2023-01-24T07:19:30;5.35;;;3.22;;
29906;SDS011;16776;50.958;10.994;2023-01-24T07:21:57;4.82;;;2.80;;
29906;SDS011;16776;50.958;10.994;2023-01-24T07:24:25;5.60;;;3.45;;
29906;SDS011;16776;50.958;10.994;2023-01-24T07:26:55;6.32;;;3.75;;
29906;SDS011;16776;50.958;10.994;2023-01-24T07:29:22;4.80;;;3.33;;
29906;SDS011;16776;50.958;10.994;2023-01-24T07:31:49;5.45;;;3.42;;
29906;SDS011;16776;50.958;10.994;2023-01-24T07:34:16;4.95;;;2.92;;
29906;SDS011;16776;50.958;10.994;2023-01-24T07:36:44;4.82;;;3.13;;
29906;SDS011;16776;50.958;10.994;2023-01-24T07:39:12;4.47;;;2.60;;
29906;SDS011;16776;50.958;10.994;2023-01-24T07:41:38;6.43;;;3.40;;
29906;SDS011;16776;50.958;10.994;2023-01-24T07:44:11;4.85;;;2.92;;
29906;SDS011;16776;50.958;10.994;2023-01-24T07:46:38;4.45;;;2.95;;
29906;SDS011;16776;50.958;10.994;2023-01-24T07:49:04;5.25;;;2.92;;
29906;SDS011;16776;50.958;10.994;2023-01-24T07:51:31;5.57;;;3.05;;
29906;SDS011;16776;50.958;10.994;2023-01-24T07:53:57;6.10;;;3.17;;
29906;SDS011;16776;50.958;10.994;2023-01-24T07:56:24;4.47;;;2.75;;
29906;SDS011;16776;50.958;10.994;2023-01-24T07:58:51;5.40;;;3.03;;
29906;SDS011;16776;50.958;10.994;2023-01-24T08:01:20;5.20;;;2.88;;
29906;SDS011;16776;50.958;10.994;2023-01-24T08:03:49;4.60;;;2.97;;
29906;SDS011;16776;50.958;10.994;2023-01-24T08:06:19;3.55;;;3.08;;
29906;SDS011;16776;50.958;10.994;2023-01-24T08:08:46;3.80;;;2.65;;
29906;SDS011;16776;50.958;10.994;2023-01-24T08:11:13;5.25;;;2.70;;
29906;SDS011;16776;50.958;10.994;2023-01-24T08:13:42;4.45;;;2.83;;
29906;SDS011;16776;50.958;10.994;2023-01-24T08:16:08;6.13;;;3.85;;
29906;SDS011;16776;50.958;10.994;2023-01-24T08:18:37;5.43;;;2.97;;
29906;SDS011;16776;50.958;10.994;2023-01-24T08:21:04;5.75;;;3.45;;
29906;SDS011;16776;50.958;10.994;2023-01-24T08:23:31;5.20;;;3.28;;
29906;SDS011;16776;50.958;10.994;2023-01-24T08:25:58;5.20;;;3.45;;
29906;SDS011;16776;50.958;10.994;2023-01-24T08:28:25;6.78;;;3.78;;
29906;SDS011;16776;50.958;10.994;2023-01-24T08:30:52;5.55;;;3.60;;
29906;SDS011;16776;50.958;10.994;2023-01-24T08:33:22;5.07;;;3.35;;
29906;SDS011;16776;50.958;10.994;2023-01-24T08:35:53;6.22;;;3.38;;
29906;SDS011;16776;50.958;10.994;2023-01-24T08:38:21;5.22;;;3.45;;
29906;SDS011;16776;50.958;10.994;2023-01-24T08:40:51;6.43;;;4.10;;
29906;SDS011;16776;50.958;10.994;2023-01-24T08:43:18;8.13;;;4.55;;
29906;SDS011;16776;50.958;10.994;2023-01-24T08:45:44;7.88;;;4.43;;
29906;SDS011;16776;50.958;10.994;2023-01-24T08:48:11;7.18;;;4.47;;
29906;SDS011;16776;50.958;10.994;2023-01-24T08:50:38;6.72;;;4.28;;
29906;SDS011;16776;50.958;10.994;2023-01-24T08:53:05;6.47;;;4.15;;
29906;SDS011;16776;50.958;10.994;2023-01-24T08:55:32;7.63;;;4.97;;
29906;SDS011;16776;50.958;10.994;2023-01-24T08:58:04;6.53;;;4.18;;
29906;SDS011;16776;50.958;10.994;2023-01-24T09:00:34;7.28;;;4.43;;
29906;SDS011;16776;50.958;10.994;2023-01-24T09:03:00;8.63;;;4.50;;
29906;SDS011;16776;50.958;10.994;2023-01-24T09:05:27;7.15;;;4.43;;
29906;SDS011;16776;50.958;10.994;2023-01-24T09:07:54;6.68;;;4.10;;
29906;SDS011;16776;50.958;10.994;2023-01-24T09:10:22;9.15;;;5.13;;
29906;SDS011;16776;50.958;10.994;2023-01-24T09:12:49;6.75;;;3.90;;
29906;SDS011;16776;50.958;10.994;2023-01-24T09:15:15;7.45;;;4.35;;
29906;SDS011;16776;50.958;10.994;2023-01-24T09:17:42;7.68;;;4.97;;
29906;SDS011;16776;50.958;10.994;2023-01-24T09:20:09;7.65;;;5.18;;
29906;SDS011;16776;50.958;10.994;2023-01-24T09:22:36;7.45;;;4.50;;
29906;SDS011;16776;50.958;10.994;2023-01-24T09:25:05;7.40;;;4.88;;
29906;SDS011;16776;50.958;10.994;2023-01-24T09:27:34;7.05;;;4.65;;
29906;SDS011;16776;50.958;10.994;2023-01-24T09:30:01;7.05;;;4.75;;
29906;SDS011;16776;50.958;10.994;2023-01-24T09:32:29;9.88;;;5.68;;
29906;SDS011;16776;50.958;10.994;2023-01-24T09:34:56;8.55;;;4.82;;
29906;SDS011;16776;50.958;10.994;2023-01-24T09:37:27;9.75;;;5.78;;
29906;SDS011;16776;50.958;10.994;2023-01-24T09:39:54;8.82;;;5.30;;
29906;SDS011;16776;50.958;10.994;2023-01-24T09:42:23;7.75;;;5.20;;
29906;SDS011;16776;50.958;10.994;2023-01-24T09:44:58;10.65;;;5.13;;
29906;SDS011;16776;50.958;10.994;2023-01-24T09:47:39;6.70;;;4.57;;
29906;SDS011;16776;50.958;10.994;2023-01-24T09:50:13;7.43;;;4.88;;
29906;SDS011;16776;50.958;10.994;2023-01-24T09:52:42;7.17;;;4.40;;
29906;SDS011;16776;50.958;10.994;2023-01-24T09:55:12;7.45;;;3.90;;
29906;SDS011;16776;50.958;10.994;2023-01-24T09:57:45;6.18;;;4.05;;
29906;SDS011;16776;50.958;10.994;2023-01-24T10:00:19;7.65;;;3.97;;
29906;SDS011;16776;50.958;10.994;2023-01-24T10:02:52;6.63;;;4.13;;
29906;SDS011;16776;50.958;10.994;2023-01-24T10:05:20;6.32;;;3.67;;
29906;SDS011;16776;50.958;10.994;2023-01-24T10:10:44;9.05;;;4.65;;
29906;SDS011;16776;50.958;10.994;2023-01-24T10:13:19;8.10;;;4.50;;
29906;SDS011;16776;50.958;10.994;2023-01-24T10:15:58;7.22;;;4.10;;
29906;SDS011;16776;50.958;10.994;2023-01-24T10:18:38;8.88;;;4.55;;
29906;SDS011;16776;50.958;10.994;2023-01-24T10:24:07;6.95;;;4.60;;
29906;SDS011;16776;50.958;10.994;2023-01-24T10:26:39;7.53;;;4.77;;
29906;SDS011;16776;50.958;10.994;2023-01-24T10:29:14;8.20;;;5.05;;
29906;SDS011;16776;50.958;10.994;2023-01-24T10:31:47;8.55;;;4.97;;
29906;SDS011;16776;50.958;10.994;2023-01-24T10:34:19;8.48;;;4.72;;
29906;SDS011;16776;50.958;10.994;2023-01-24T10:36:55;6.93;;;4.50;;
29906;SDS011;16776;50.958;10.994;2023-01-24T10:39:26;7.55;;;4.70;;
29906;SDS011;16776;50.958;10.994;2023-01-24T10:41:53;6.00;;;4.20;;
29906;SDS011;16776;50.958;10.994;2023-01-24T10:44:23;6.30;;;4.45;;
29906;SDS011;16776;50.958;10.994;2023-01-24T10:47:02;5.05;;;3.78;;
29906;SDS011;16776;50.958;10.994;2023-01-24T10:49:40;5.95;;;3.67;;
29906;SDS011;16776;50.958;10.994;2023-01-24T10:52:14;6.70;;;4.50;;
29906;SDS011;16776;50.958;10.994;2023-01-24T10:54:42;6.85;;;4.60;;
29906;SDS011;16776;50.958;10.994;2023-01-24T10:57:16;7.93;;;4.50;;
29906;SDS011;16776;50.958;10.994;2023-01-24T10:59:45;7.35;;;4.53;;
29906;SDS011;16776;50.958;10.994;2023-01-24T11:02:18;7.15;;;3.97;;
29906;SDS011;16776;50.958;10.994;2023-01-24T11:04:46;6.55;;;4.10;;
29906;SDS011;16776;50.958;10.994;2023-01-24T11:07:21;7.68;;;4.40;;
29906;SDS011;16776;50.958;10.994;2023-01-24T11:09:53;7.63;;;4.32;;
29906;SDS011;16776;50.958;10.994;2023-01-24T11:12:20;8.77;;;4.38;;
29906;SDS011;16776;50.958;10.994;2023-01-24T11:14:47;8.88;;;5.25;;
29906;SDS011;16776;50.958;10.994;2023-01-24T11:17:29;7.43;;;4.57;;
29906;SDS011;16776;50.958;10.994;2023-01-24T11:19:58;6.53;;;4.05;;
29906;SDS011;16776;50.958;10.994;2023-01-24T11:22:29;5.45;;;3.75;;
29906;SDS011;16776;50.958;10.994;2023-01-24T11:25:00;6.82;;;4.65;;
29906;SDS011;16776;50.958;10.994;2023-01-24T11:27:30;7.18;;;4.90;;
29906;SDS011;16776;50.958;10.994;2023-01-24T11:30:04;7.28;;;4.32;;
29906;SDS011;16776;50.958;10.994;2023-01-24T11:32:35;6.43;;;4.43;;
29906;SDS011;16776;50.958;10.994;2023-01-24T11:35:10;6.47;;;4.15;;
29906;SDS011;16776;50.958;10.994;2023-01-24T11:37:53;8.23;;;4.72;;
29906;SDS011;16776;50.958;10.994;2023-01-24T11:40:33;8.43;;;4.53;;
29906;SDS011;16776;50.958;10.994;2023-01-24T11:43:14;7.18;;;4.47;;
29906;SDS011;16776;50.958;10.994;2023-01-24T11:46:12;6.90;;;3.75;;
29906;SDS011;16776;50.958;10.994;2023-01-24T11:48:50;6.70;;;3.90;;
29906;SDS011;16776;50.958;10.994;2023-01-24T11:51:23;6.88;;;4.45;;
29906;SDS011;16776;50.958;10.994;2023-01-24T11:54:02;6.97;;;3.85;;
29906;SDS011;16776;50.958;10.994;2023-01-24T11:56:37;8.95;;;4.43;;
29906;SDS011;16776;50.958;10.994;2023-01-24T11:59:18;6.82;;;4.10;;
29906;SDS011;16776;50.958;10.994;2023-01-24T12:02:01;6.57;;;4.00;;
29906;SDS011;16776;50.958;10.994;2023-01-24T12:04:50;6.85;;;4.15;;
29906;SDS011;16776;50.958;10.994;2023-01-24T12:07:28;6.28;;;3.92;;
29906;SDS011;16776;50.958;10.994;2023-01-24T12:10:05;5.50;;;3.88;;
29906;SDS011;16776;50.958;10.994;2023-01-24T12:12:46;6.95;;;4.15;;
29906;SDS011;16776;50.958;10.994;2023-01-24T12:15:24;6.38;;;3.63;;
29906;SDS011;16776;50.958;10.994;2023-01-24T12:18:07;6.20;;;3.85;;
29906;SDS011;16776;50.958;10.994;2023-01-24T12:23:40;6.47;;;3.85;;
29906;SDS011;16776;50.958;10.994;2023-01-24T12:26:14;5.63;;;3.50;;
29906;SDS011;16776;50.958;10.994;2023-01-24T12:28:47;5.82;;;3.65;;
29906;SDS011;16776;50.958;10.994;2023-01-24T12:31:22;6.63;;;4.20;;
29906;SDS011;16776;50.958;10.994;2023-01-24T12:33:55;8.93;;;4.05;;
29906;SDS011;16776;50.958;10.994;2023-01-24T12:36:34;6.47;;;4.28;;
29906;SDS011;16776;50.958;10.994;2023-01-24T12:39:09;6.75;;;4.97;;
29906;SDS011;16776;50.958;10.994;2023-01-24T12:41:40;8.57;;;5.22;;
29906;SDS011;16776;50.958;10.994;2023-01-24T12:44:11;6.78;;;4.32;;
29906;SDS011;16776;50.958;10.994;2023-01-24T12:46:45;6.38;;;4.03;;
29906;SDS011;16776;50.958;10.994;2023-01-24T12:49:29;6.30;;;4.75;;
29906;SDS011;16776;50.958;10.994;2023-01-24T12:52:03;8.85;;;4.90;;
29906;SDS011;16776;50.958;10.994;2023-01-24T12:54:36;7.95;;;4.72;;
29906;SDS011;16776;50.958;10.994;2023-01-24T12:57:11;7.88;;;5.20;;
29906;SDS011;16776;50.958;10.994;2023-01-24T12:59:43;9.50;;;5.63;;
29906;SDS011;16776;50.958;10.994;2023-01-24T13:02:23;7.68;;;4.88;;
29906;SDS011;16776;50.958;10.994;2023-01-24T13:05:15;6.93;;;4.60;;
29906;SDS011;16776;50.958;10.994;2023-01-24T13:07:54;8.80;;;5.43;;
29906;SDS011;16776;50.958;10.994;2023-01-24T13:10:37;10.00;;;4.88;;
29906;SDS011;16776;50.958;10.994;2023-01-24T13:13:12;7.57;;;4.45;;
29906;SDS011;16776;50.958;10.994;2023-01-24T13:15:46;7.32;;;4.72;;
29906;SDS011;16776;50.958;10.994;2023-01-24T13:18:24;7.43;;;4.78;;
29906;SDS011;16776;50.958;10.994;2023-01-24T13:21:06;6.03;;;4.05;;
29906;SDS011;16776;50.958;10.994;2023-01-24T13:23:56;9.25;;;5.00;;
29906;SDS011;16776;50.958;10.994;2023-01-24T13:26:44;9.20;;;4.45;;
29906;SDS011;16776;50.958;10.994;2023-01-24T13:29:24;7.15;;;4.82;;
29906;SDS011;16776;50.958;10.994;2023-01-24T13:32:02;7.70;;;4.63;;
29906;SDS011;16776;50.958;10.994;2023-01-24T13:34:33;7.63;;;5.13;;
29906;SDS011;16776;50.958;10.994;2023-01-24T13:37:02;7.88;;;4.43;;
29906;SDS011;16776;50.958;10.994;2023-01-24T13:39:33;6.65;;;3.47;;
29906;SDS011;16776;50.958;10.994;2023-01-24T13:42:03;7.07;;;4.95;;
29906;SDS011;16776;50.958;10.994;2023-01-24T13:44:32;8.98;;;6.25;;
29906;SDS011;16776;50.958;10.994;2023-01-24T13:50:02;8.13;;;4.93;;
29906;SDS011;16776;50.958;10.994;2023-01-24T13:52:38;5.90;;;3.75;;
29906;SDS011;16776;50.958;10.994;2023-01-24T13:58:31;7.00;;;4.45;;
29906;SDS011;16776;50.958;10.994;2023-01-24T14:00:59;6.38;;;4.22;;
29906;SDS011;16776;50.958;10.994;2023-01-24T14:03:29;5.97;;;4.38;;
29906;SDS011;16776;50.958;10.994;2023-01-24T14:08:47;17.15;;;10.90;;
29906;SDS011;16776;50.958;10.994;2023-01-24T14:11:28;12.02;;;7.07;;
29906;SDS011;16776;50.958;10.994;2023-01-24T14:14:01;9.35;;;5.70;;
29906;SDS011;16776;50.958;10.994;2023-01-24T14:17:02;10.38;;;5.43;;
29906;SDS011;16776;50.958;10.994;2023-01-24T14:19:45;8.07;;;4.68;;
29906;SDS011;16776;50.958;10.994;2023-01-24T14:22:17;7.75;;;4.88;;
29906;SDS011;16776;50.958;10.994;2023-01-24T14:24:54;6.80;;;3.83;;
29906;SDS011;16776;50.958;10.994;2023-01-24T14:27:32;7.85;;;4.65;;
29906;SDS011;16776;50.958;10.994;2023-01-24T14:30:14;7.47;;;4.45;;
29906;SDS011;16776;50.958;10.994;2023-01-24T14:32:49;6.65;;;4.38;;
29906;SDS011;16776;50.958;10.994;2023-01-24T14:35:18;7.75;;;4.50;;
29906;SDS011;16776;50.958;10.994;2023-01-24T14:37:47;6.78;;;4.55;;
29906;SDS011;16776;50.958;10.994;2023-01-24T14:40:18;7.80;;;4.85;;
29906;SDS011;16776;50.958;10.994;2023-01-24T14:42:47;8.02;;;4.88;;
29906;SDS011;16776;50.958;10.994;2023-01-24T14:45:20;7.93;;;4.97;;
29906;SDS011;16776;50.958;10.994;2023-01-24T14:47:51;8.23;;;5.85;;
29906;SDS011;16776;50.958;10.994;2023-01-24T14:50:20;9.38;;;6.25;;
29906;SDS011;16776;50.958;10.994;2023-01-24T14:52:48;11.73;;;6.90;;
29906;SDS011;16776;50.958;10.994;2023-01-24T14:58:14;13.18;;;7.05;;
29906;SDS011;16776;50.958;10.994;2023-01-24T15:00:46;12.43;;;7.20;;
29906;SDS011;16776;50.958;10.994;2023-01-24T15:03:17;11.88;;;6.22;;
29906;SDS011;16776;50.958;10.994;2023-01-24T15:05:51;10.90;;;5.60;;
29906;SDS011;16776;50.958;10.994;2023-01-24T15:08:25;7.97;;;5.28;;
29906;SDS011;16776;50.958;10.994;2023-01-24T15:10:57;10.77;;;5.90;;
29906;SDS011;16776;50.958;10.994;2023-01-24T15:13:31;9.43;;;5.55;;
29906;SDS011;16776;50.958;10.994;2023-01-24T15:16:01;9.85;;;5.47;;